createdAt,value
2023-01-09T00:01:47.404Z,99146.66
2023-01-09T00:04:13.845Z,99158.13
2023-01-09T00:06:40.296Z,99161.22
2023-01-09T00:09:06.690Z,99158.50
2023-01-09T00:11:33.056Z,99164.69
2023-01-09T00:13:59.441Z,99176.91
2023-01-09T00:16:25.962Z,99165.91
2023-01-09T00:18:52.393Z,99168.63
2023-01-09T00:21:18.763Z,99171.63
2023-01-09T00:23:45.127Z,99174.81
2023-01-09T00:26:11.495Z,99178.03
2023-01-09T00:28:37.843Z,99176.13
2023-01-09T00:31:04.277Z,99166.66
2023-01-09T00:33:30.795Z,99179.03
2023-01-09T00:35:57.147Z,99163.94
2023-01-09T00:38:23.506Z,99161.91
2023-01-09T00:40:49.861Z,99162.44
2023-01-09T00:43:16.221Z,99165.44
2023-01-09T00:45:42.600Z,99157.00
2023-01-09T00:48:09.105Z,99162.22
2023-01-09T00:50:35.480Z,99168.16
2023-01-09T00:53:01.836Z,99188.53
2023-01-09T00:55:28.194Z,99185.50
2023-01-09T00:57:54.561Z,99184.00
2023-01-09T01:00:20.933Z,99177.06
2023-01-09T01:02:47.366Z,99179.25
2023-01-09T01:05:13.741Z,99183.47
2023-01-09T01:07:40.158Z,99180.00
2023-01-09T01:10:06.527Z,99186.91
2023-01-09T01:12:32.887Z,99182.41
2023-01-09T01:14:59.256Z,99194.63
2023-01-09T01:17:25.632Z,99186.44
2023-01-09T01:19:51.971Z,99196.88
2023-01-09T01:22:18.338Z,99184.69
2023-01-09T01:24:44.721Z,99185.91
2023-01-09T01:27:11.087Z,99183.47
2023-01-09T01:29:37.468Z,99182.72
2023-01-09T01:32:03.828Z,99198.09
2023-01-09T01:34:30.165Z,99203.22
2023-01-09T01:36:56.549Z,99201.56
2023-01-09T01:39:23.036Z,99214.41
2023-01-09T01:41:49.384Z,99206.50
2023-01-09T01:44:15.770Z,99201.25
2023-01-09T01:46:42.120Z,99220.59
2023-01-09T01:49:08.521Z,99205.94
2023-01-09T01:51:34.879Z,99213.66
2023-01-09T01:54:01.221Z,99212.16
2023-01-09T01:56:27.606Z,99218.63
2023-01-09T01:58:53.958Z,99199.59
2023-01-09T02:01:20.416Z,99206.44
2023-01-09T02:03:46.796Z,99206.25
2023-01-09T02:06:13.170Z,99206.91
2023-01-09T02:08:39.553Z,99218.34
2023-01-09T02:11:05.912Z,99210.38
2023-01-09T02:13:32.273Z,99218.53
2023-01-09T02:15:58.723Z,99214.41
2023-01-09T02:18:25.106Z,99228.28
2023-01-09T02:20:51.467Z,99229.97
2023-01-09T02:23:17.840Z,99214.41
2023-01-09T02:25:44.190Z,99227.72
2023-01-09T02:28:10.535Z,99233.09
2023-01-09T02:30:36.913Z,99225.47
2023-01-09T02:33:03.282Z,99225.94
2023-01-09T02:35:29.665Z,99237.13
2023-01-09T02:37:56.149Z,99241.81
2023-01-09T02:40:22.502Z,99237.13
2023-01-09T02:42:48.866Z,99240.09
2023-01-09T02:45:15.250Z,99253.91
2023-01-09T02:47:41.622Z,99251.00
2023-01-09T02:50:07.978Z,99245.53
2023-01-09T02:52:34.333Z,99235.81
2023-01-09T02:55:00.815Z,99242.56
2023-01-09T02:57:27.177Z,99248.75
2023-01-09T02:59:54.143Z,99242.81
2023-01-09T03:02:20.559Z,99238.59
2023-01-09T03:04:46.915Z,99238.59
2023-01-09T03:07:13.308Z,99240.84
2023-01-09T03:09:39.656Z,99242.06
2023-01-09T03:12:06.019Z,99240.09
2023-01-09T03:14:32.366Z,99250.72
2023-01-09T03:16:58.745Z,99248.94
2023-01-09T03:19:25.102Z,99263.75
2023-01-09T03:21:51.482Z,99261.13
2023-01-09T03:24:17.872Z,99256.63
2023-01-09T03:26:44.231Z,99258.78
2023-01-09T03:29:10.605Z,99256.53
2023-01-09T03:31:37.086Z,99263.94
2023-01-09T03:34:03.457Z,99268.91
2023-01-09T03:36:30.100Z,99258.13
2023-01-09T03:38:56.464Z,99259.53
2023-01-09T03:41:22.820Z,99259.81
2023-01-09T03:43:49.195Z,99270.72
2023-01-09T03:46:16.570Z,99261.50
2023-01-09T03:48:42.925Z,99264.03
2023-01-09T03:51:09.277Z,99260.56
2023-01-09T03:53:35.638Z,99263.00
2023-01-09T03:56:02.005Z,99263.09
2023-01-09T03:58:28.365Z,99265.06
2023-01-09T04:00:54.850Z,99273.03
2023-01-09T04:03:21.251Z,99269.75
2023-01-09T04:05:47.593Z,99286.34
2023-01-09T04:08:13.995Z,99289.06
2023-01-09T04:10:40.343Z,99295.91
2023-01-09T04:13:06.711Z,99300.63
2023-01-09T04:15:33.079Z,99293.94
2023-01-09T04:17:59.437Z,99308.78
2023-01-09T04:20:25.811Z,99306.97
2023-01-09T04:22:52.169Z,99310.00
2023-01-09T04:25:18.527Z,99316.19
2023-01-09T04:27:44.896Z,99311.13
2023-01-09T04:30:11.311Z,99309.81
2023-01-09T04:32:37.668Z,99307.09
2023-01-09T04:35:04.046Z,99304.25
2023-01-09T04:37:30.407Z,99297.91
2023-01-09T04:39:56.756Z,99305.19
2023-01-09T04:42:23.144Z,99313.66
2023-01-09T04:44:49.494Z,99303.81
2023-01-09T04:47:15.849Z,99308.59
2023-01-09T04:49:42.206Z,99304.56
2023-01-09T04:52:08.576Z,99306.53
2023-01-09T04:54:34.944Z,99308.03
2023-01-09T04:57:01.318Z,99311.97
2023-01-09T04:59:27.677Z,99319.66
2023-01-09T05:01:54.070Z,99311.50
2023-01-09T05:04:20.563Z,99310.00
2023-01-09T05:06:46.967Z,99320.13
2023-01-09T05:09:13.323Z,99311.97
2023-01-09T05:11:39.716Z,99319.19
2023-01-09T05:14:06.067Z,99315.91
2023-01-09T05:16:32.448Z,99330.25
2023-01-09T05:18:58.833Z,99330.25
2023-01-09T05:21:25.205Z,99336.63
2023-01-09T05:23:51.585Z,99334.66
2023-01-09T05:26:17.957Z,99341.13
2023-01-09T05:28:44.327Z,99349.66
2023-01-09T05:31:10.700Z,99347.78
2023-01-09T05:33:37.074Z,99357.06
2023-01-09T05:36:03.444Z,99356.13
2023-01-09T05:38:29.817Z,99365.91
2023-01-09T05:40:56.211Z,99367.13
2023-01-09T05:43:22.577Z,99375.75
2023-01-09T05:45:49.000Z,99366.56
2023-01-09T05:48:15.373Z,99356.13
2023-01-09T05:50:41.773Z,99368.25
2023-01-09T05:53:08.126Z,99375.16
2023-01-09T05:55:34.481Z,99372.94
2023-01-09T05:58:00.836Z,99371.25
2023-01-09T06:00:27.200Z,99381.38
2023-01-09T06:02:53.621Z,99386.81
2023-01-09T06:05:19.995Z,99378.00
2023-01-09T06:07:46.372Z,99388.13
2023-01-09T06:10:12.737Z,99390.47
2023-01-09T06:12:39.088Z,99387.56
2023-01-09T06:15:08.004Z,99394.22
2023-01-09T06:17:35.199Z,99391.03
2023-01-09T06:20:01.548Z,99400.59
2023-01-09T06:22:27.903Z,99403.59
2023-01-09T06:24:54.257Z,99414.00
2023-01-09T06:27:20.621Z,99421.59
2023-01-09T06:29:46.989Z,99410.25
2023-01-09T06:32:14.463Z,99416.63
2023-01-09T06:34:40.812Z,99427.34
2023-01-09T06:37:07.176Z,99434.28
2023-01-09T06:39:33.552Z,99435.66
2023-01-09T06:41:59.942Z,99432.78
2023-01-09T06:44:26.283Z,99433.53
2023-01-09T06:46:52.666Z,99438.09
2023-01-09T06:49:19.015Z,99456.22
2023-01-09T06:51:45.406Z,99450.97
2023-01-09T06:54:11.779Z,99452.16
2023-01-09T06:56:38.143Z,99447.94
2023-01-09T06:59:04.503Z,99455.63
2023-01-09T07:01:30.997Z,99454.88
2023-01-09T07:03:57.467Z,99461.84
2023-01-09T07:06:23.850Z,99465.28
2023-01-09T07:08:50.219Z,99469.69
2023-01-09T07:11:16.567Z,99470.91
2023-01-09T07:13:42.917Z,99481.78
2023-01-09T07:16:09.364Z,99477.41
2023-01-09T07:18:35.739Z,99472.41
2023-01-09T07:21:02.093Z,99470.72
2023-01-09T07:23:28.473Z,99480.41
2023-01-09T07:25:54.834Z,99491.00
2023-01-09T07:28:21.193Z,99486.75
2023-01-09T07:30:47.578Z,99486.31
2023-01-09T07:33:13.950Z,99477.84
2023-01-09T07:35:40.301Z,99486.94
2023-01-09T07:38:06.674Z,99488.44
2023-01-09T07:40:33.046Z,99492.19
2023-01-09T07:42:59.391Z,99494.28
2023-01-09T07:45:25.766Z,99493.72
2023-01-09T07:47:52.144Z,99504.13
2023-01-09T07:50:18.487Z,99512.63
2023-01-09T07:52:44.859Z,99520.34
2023-01-09T07:55:11.227Z,99517.31
2023-01-09T07:57:37.623Z,99522.41
2023-01-09T08:00:03.983Z,99531.78
2023-01-09T08:02:30.374Z,99542.03
2023-01-09T08:04:56.811Z,99544.31
2023-01-09T08:07:23.177Z,99546.16
2023-01-09T08:09:49.566Z,99544.47
2023-01-09T08:12:15.941Z,99543.09
2023-01-09T08:14:42.288Z,99550.94
2023-01-09T08:17:08.656Z,99558.50
2023-01-09T08:19:35.045Z,99558.81
2023-01-09T08:22:01.418Z,99570.16
2023-01-09T08:24:27.756Z,99567.91
2023-01-09T08:26:54.221Z,99571.94
2023-01-09T08:29:20.586Z,99573.19
2023-01-09T08:31:46.987Z,99579.34
2023-01-09T08:34:13.418Z,99586.47
2023-01-09T08:36:39.787Z,99576.63
2023-01-09T08:39:06.142Z,99581.38
2023-01-09T08:41:32.509Z,99577.94
2023-01-09T08:43:58.891Z,99581.06
2023-01-09T08:46:25.248Z,99586.38
2023-01-09T08:48:51.581Z,99594.31
2023-01-09T08:51:17.940Z,99588.91
2023-01-09T08:53:44.316Z,99595.81
2023-01-09T08:56:10.659Z,99602.16
2023-01-09T08:58:37.011Z,99601.84
2023-01-09T09:01:03.494Z,99610.31
2023-01-09T09:03:29.848Z,99623.00
2023-01-09T09:05:56.207Z,99613.81
2023-01-09T09:08:22.580Z,99606.97
2023-01-09T09:10:48.945Z,99630.41
2023-01-09T09:13:15.287Z,99641.22
2023-01-09T09:15:41.700Z,99637.34
2023-01-09T09:18:08.098Z,99648.84
2023-01-09T09:20:34.460Z,99656.91
2023-01-09T09:23:00.813Z,99661.88
2023-01-09T09:25:27.164Z,99669.44
2023-01-09T09:27:53.517Z,99672.75
2023-01-09T09:30:19.954Z,99676.81
2023-01-09T09:32:46.328Z,99679.09
2023-01-09T09:35:12.672Z,99670.94
2023-01-09T09:37:39.034Z,99676.38
2023-01-09T09:40:17.461Z,99685.13
2023-01-09T09:42:44.584Z,99696.63
2023-01-09T09:45:10.957Z,99686.94
2023-01-09T09:47:37.343Z,99693.13
2023-01-09T09:50:03.762Z,99708.25
2023-01-09T09:52:30.133Z,99722.78
2023-01-09T09:54:56.533Z,99715.34
2023-01-09T09:57:22.886Z,99737.41
2023-01-09T09:59:49.245Z,99738.00
2023-01-09T10:02:15.619Z,99744.94
2023-01-09T10:04:42.286Z,99739.22
2023-01-09T10:07:09.747Z,99754.34
2023-01-09T10:09:36.132Z,99758.88
2023-01-09T10:12:02.494Z,99763.09
2023-01-09T10:14:28.866Z,99751.19
2023-01-09T10:16:55.256Z,99751.13
2023-01-09T10:19:21.617Z,99762.50
2023-01-09T10:21:47.993Z,99759.44
2023-01-09T10:24:14.369Z,99775.28
2023-01-09T10:26:40.873Z,99778.50
2023-01-09T10:29:07.226Z,99780.63
2023-01-09T10:31:33.662Z,99801.19
2023-01-09T10:34:00.061Z,99795.56
2023-01-09T10:36:26.396Z,99792.88
2023-01-09T10:38:52.739Z,99806.34
2023-01-09T10:41:19.123Z,99796.66
2023-01-09T10:43:45.488Z,99799.97
2023-01-09T10:46:11.873Z,99804.06
2023-01-09T10:48:38.240Z,99806.94
2023-01-09T10:51:04.624Z,99814.47
2023-01-09T10:53:30.998Z,99814.63
2023-01-09T10:55:57.356Z,99808.88
2023-01-09T10:58:23.722Z,99807.97
2023-01-09T11:00:50.090Z,99810.22
2023-01-09T11:03:16.470Z,99823.81
2023-01-09T11:05:42.876Z,99813.38
2023-01-09T11:08:09.242Z,99815.19
2023-01-09T11:10:35.615Z,99819.78
2023-01-09T11:13:01.978Z,99827.75
2023-01-09T11:15:28.354Z,99827.16
2023-01-09T11:17:54.759Z,99819.41
2023-01-09T11:20:21.119Z,99821.72
2023-01-09T11:22:47.486Z,99823.97
2023-01-09T11:25:13.872Z,99821.81
2023-01-09T11:27:40.221Z,99815.03
2023-01-09T11:30:06.577Z,99827.75
2023-01-09T11:32:32.953Z,99822.16
2023-01-09T11:34:59.322Z,99819.72
2023-01-09T11:37:25.686Z,99823.50
2023-01-09T11:39:52.055Z,99816.69
2023-01-09T11:42:18.413Z,99822.88
2023-01-09T11:44:44.775Z,99829.41
2023-01-09T11:47:11.146Z,99826.69
2023-01-09T11:49:37.499Z,99835.19
2023-01-09T11:52:03.881Z,99827.94
2023-01-09T11:54:30.244Z,99830.00
2023-01-09T11:56:56.607Z,99832.28
2023-01-09T11:59:22.993Z,99841.94
2023-01-09T12:01:49.467Z,99834.53
2023-01-09T12:04:15.876Z,99842.38
2023-01-09T12:06:42.258Z,99849.19
2023-01-09T12:09:08.669Z,99851.75
2023-01-09T12:11:35.027Z,99857.53
2023-01-09T12:14:01.402Z,99872.97
2023-01-09T12:16:27.846Z,99851.94
2023-01-09T12:18:54.244Z,99856.63
2023-01-09T12:21:20.629Z,99865.88
2023-01-09T12:23:46.976Z,99860.72
2023-01-09T12:26:13.338Z,99852.09
2023-01-09T12:28:39.753Z,99855.13
2023-01-09T12:31:06.128Z,99860.88
2023-01-09T12:33:32.505Z,99863.75
2023-01-09T12:35:58.857Z,99872.34
2023-01-09T12:38:25.237Z,99872.34
2023-01-09T12:40:51.615Z,99875.22
2023-01-09T12:43:17.991Z,99879.47
2023-01-09T12:45:44.446Z,99873.56
2023-01-09T12:48:10.839Z,99877.34
2023-01-09T12:50:37.192Z,99882.47
2023-01-09T12:53:03.675Z,99886.72
2023-01-09T12:55:30.041Z,99884.00
2023-01-09T12:57:56.481Z,99890.34
2023-01-09T13:00:22.834Z,99906.06
2023-01-09T13:02:50.467Z,99910.00
2023-01-09T13:05:21.662Z,99921.47
2023-01-09T13:07:48.063Z,99913.91
2023-01-09T13:10:14.416Z,99925.72
2023-01-09T13:12:40.800Z,99931.59
2023-01-09T13:15:07.166Z,99925.41
2023-01-09T13:17:33.556Z,99928.44
2023-01-09T13:19:59.953Z,99931.91
2023-01-09T13:22:26.429Z,99939.75
2023-01-09T13:24:52.784Z,99935.69
2023-01-09T13:27:19.137Z,99935.66
2023-01-09T13:29:45.505Z,99938.25
2023-01-09T13:32:11.877Z,99937.66
2023-01-09T13:34:38.250Z,99935.97
2023-01-09T13:37:04.690Z,99941.59
2023-01-09T13:39:31.091Z,99947.31
2023-01-09T13:41:57.450Z,99955.94
2023-01-09T13:44:23.801Z,99958.03
2023-01-09T13:46:50.194Z,99966.38
2023-01-09T13:49:16.612Z,99974.84
2023-01-09T13:51:42.973Z,99978.75
2023-01-09T13:54:09.315Z,99984.63
2023-01-09T13:56:35.692Z,99990.97
2023-01-09T13:59:02.380Z,99994.94
2023-01-09T14:01:28.768Z,100001.44
2023-01-09T14:03:55.154Z,100011.41
2023-01-09T14:06:21.504Z,100007.31
2023-01-09T14:08:47.867Z,100016.06
2023-01-09T14:11:14.249Z,100014.69
2023-01-09T14:13:40.618Z,100026.53
2023-01-09T14:16:07.018Z,100019.13
2023-01-09T14:18:33.389Z,100011.53
2023-01-09T14:20:59.758Z,100018.03
2023-01-09T14:23:52.789Z,100017.31
2023-01-09T14:26:12.480Z,100018.66
2023-01-09T14:28:38.840Z,100038.00
2023-01-09T14:31:05.231Z,100035.28
2023-01-09T14:33:31.612Z,100041.63
2023-01-09T14:35:58.009Z,100051.00
2023-01-09T14:38:24.376Z,100060.06
2023-01-09T14:40:50.725Z,100060.84
2023-01-09T14:43:17.092Z,100070.19
2023-01-09T14:45:43.502Z,100072.91
2023-01-09T14:48:09.861Z,100072.63
2023-01-09T14:50:36.219Z,100079.25
2023-01-09T14:53:02.587Z,100086.38
2023-01-09T14:55:29.063Z,100094.25
2023-01-09T14:57:55.433Z,100104.03
2023-01-09T15:00:21.788Z,100120.16
2023-01-09T15:02:48.224Z,100127.56
2023-01-09T15:05:14.615Z,100131.03
2023-01-09T15:07:40.970Z,100130.56
2023-01-09T15:10:07.353Z,100132.34
2023-01-09T15:12:33.739Z,100141.59
2023-01-09T15:15:00.142Z,100134.50
2023-01-09T15:17:26.513Z,100139.97
2023-01-09T15:19:52.892Z,100143.88
2023-01-09T15:22:19.261Z,100159.34
2023-01-09T15:24:45.632Z,100163.13
2023-01-09T15:27:12.035Z,100171.09
2023-01-09T15:29:38.397Z,100174.63
2023-01-09T15:32:04.763Z,100186.75
2023-01-09T15:34:31.131Z,100180.97
2023-01-09T15:36:57.529Z,100201.38
2023-01-09T15:39:24.022Z,100195.19
2023-01-09T15:41:50.416Z,100190.81
2023-01-09T15:44:16.796Z,100191.25
2023-01-09T15:46:43.154Z,100189.25
2023-01-09T15:49:09.544Z,100198.66
2023-01-09T15:51:35.910Z,100208.72
2023-01-09T15:54:02.308Z,100207.75
2023-01-09T15:56:28.671Z,100208.78
2023-01-09T15:58:55.041Z,100218.78
2023-01-09T16:01:21.471Z,100220.44
2023-01-09T16:03:47.830Z,100230.09
2023-01-09T16:06:14.187Z,100230.41
2023-01-09T16:08:40.655Z,100237.22
2023-01-09T16:11:08.217Z,100251.00
2023-01-09T16:13:35.674Z,100255.16
2023-01-09T16:16:02.070Z,100263.63
2023-01-09T16:18:28.440Z,100278.09
2023-01-09T16:20:54.808Z,100280.06
2023-01-09T16:23:21.167Z,100294.75
2023-01-09T16:25:47.558Z,100300.19
2023-01-09T16:28:13.905Z,100314.25
2023-01-09T16:30:40.264Z,100319.03
2023-01-09T16:33:07.690Z,100329.28
2023-01-09T16:35:34.060Z,100336.69
2023-01-09T16:38:00.432Z,100341.13
2023-01-09T16:40:26.831Z,100349.41
2023-01-09T16:42:53.206Z,100352.47
2023-01-09T16:45:19.572Z,100356.16
2023-01-09T16:47:46.042Z,100346.56
2023-01-09T16:50:12.390Z,100362.38
2023-01-09T16:52:38.758Z,100377.84
2023-01-09T16:55:05.147Z,100391.25
2023-01-09T16:57:31.508Z,100400.94
2023-01-09T16:59:57.879Z,100402.34
2023-01-09T17:02:24.335Z,100404.47
2023-01-09T17:04:50.743Z,100421.16
2023-01-09T17:07:17.092Z,100445.66
2023-01-09T17:09:43.450Z,100461.34
2023-01-09T17:12:09.853Z,100448.38
2023-01-09T17:14:36.224Z,100437.06
2023-01-09T17:17:05.471Z,100443.03
2023-01-09T17:19:31.851Z,100463.69
2023-01-09T17:21:58.266Z,100495.41
2023-01-09T17:24:24.632Z,100500.06
2023-01-09T17:26:51.040Z,100488.00
2023-01-09T17:29:17.398Z,100498.25
2023-01-09T17:31:43.806Z,100491.91
2023-01-09T17:34:10.223Z,100495.63
2023-01-09T17:36:36.670Z,100488.75
2023-01-09T17:39:03.098Z,100496.28
2023-01-09T17:41:29.539Z,100489.66
2023-01-09T17:43:55.904Z,100489.19
2023-01-09T17:46:22.271Z,100488.66
2023-01-09T17:48:48.664Z,100492.81
2023-01-09T17:51:15.037Z,100502.16
2023-01-09T17:53:41.417Z,100497.03
2023-01-09T17:56:07.905Z,100499.00
2023-01-09T17:58:34.282Z,100495.81
2023-01-09T18:01:00.702Z,100507.94
2023-01-09T18:03:27.194Z,100513.03
2023-01-09T18:05:53.587Z,100515.34
2023-01-09T18:08:19.970Z,100531.44
2023-01-09T18:10:46.347Z,100539.06
2023-01-09T18:13:12.740Z,100534.38
2023-01-09T18:15:39.099Z,100533.91
2023-01-09T18:18:05.468Z,100541.78
2023-01-09T18:20:31.831Z,100539.06
2023-01-09T18:22:58.204Z,100544.50
2023-01-09T18:25:24.581Z,100555.06
2023-01-09T18:27:51.051Z,100567.34
2023-01-09T18:30:17.452Z,100575.38
2023-01-09T18:32:43.837Z,100575.31
2023-01-09T18:35:10.227Z,100580.75
2023-01-09T18:37:36.609Z,100586.72
2023-01-09T18:40:02.990Z,100596.09
2023-01-09T18:42:29.380Z,100604.78
2023-01-09T18:44:55.889Z,100609.47
2023-01-09T18:47:22.258Z,100621.00
2023-01-09T18:49:48.608Z,100621.22
2023-01-09T18:52:14.965Z,100631.44
2023-01-09T18:54:41.346Z,100626.44
2023-01-09T18:57:08.144Z,100625.03
2023-01-09T18:59:34.529Z,100641.25
2023-01-09T19:02:02.241Z,100641.56
2023-01-09T19:04:28.734Z,100647.69
2023-01-09T19:06:55.211Z,100650.94
2023-01-09T19:09:21.595Z,100644.63
2023-01-09T19:11:47.957Z,100653.88
2023-01-09T19:14:14.320Z,100653.00
2023-01-09T19:16:40.710Z,100657.34
2023-01-09T19:19:07.112Z,100663.03
2023-01-09T19:21:33.484Z,100659.97
2023-01-09T19:23:59.834Z,100672.69
2023-01-09T19:26:26.196Z,100677.94
2023-01-09T19:28:52.552Z,100678.81
2023-01-09T19:31:18.977Z,100695.34
2023-01-09T19:33:45.391Z,100695.34
2023-01-09T19:36:11.763Z,100691.22
2023-01-09T19:38:38.163Z,100700.56
2023-01-09T19:41:04.523Z,100704.94
2023-01-09T19:43:30.888Z,100706.00
2023-01-09T19:45:57.348Z,100698.63
2023-01-09T19:48:23.787Z,100707.19
2023-01-09T19:50:50.195Z,100710.38
2023-01-09T19:53:16.559Z,100716.22
2023-01-09T19:55:42.913Z,100719.16
2023-01-09T19:58:09.312Z,100721.47
2023-01-09T20:00:35.707Z,100720.81
2023-01-09T20:03:02.072Z,100727.88
2023-01-09T20:05:28.441Z,100721.78
2023-01-09T20:07:54.798Z,100728.09
2023-01-09T20:10:21.166Z,100723.97
2023-01-09T20:12:47.512Z,100729.31
2023-01-09T20:15:13.892Z,100733.31
2023-01-09T20:17:40.264Z,100738.56
2023-01-09T20:20:06.637Z,100744.09
2023-01-09T20:22:33.036Z,100749.97
2023-01-09T20:24:59.405Z,100758.13
2023-01-09T20:27:25.756Z,100760.63
2023-01-09T20:29:52.121Z,100762.69
2023-01-09T20:32:18.483Z,100768.13
2023-01-09T20:34:44.846Z,100778.50
2023-01-09T20:37:11.263Z,100789.78
2023-01-09T20:39:37.671Z,100794.59
2023-01-09T20:42:04.074Z,100787.84
2023-01-09T20:44:30.435Z,100802.66
2023-01-09T20:46:56.825Z,100806.13
2023-01-09T20:49:23.193Z,100812.44
2023-01-09T20:51:49.581Z,100804.63
2023-01-09T20:54:15.938Z,100813.09
2023-01-09T20:56:42.324Z,100821.72
2023-01-09T20:59:08.705Z,100823.31
2023-01-09T21:01:35.066Z,100824.84
2023-01-09T21:04:01.498Z,100824.31
2023-01-09T21:06:27.949Z,100821.59
2023-01-09T21:08:54.340Z,100828.84
2023-01-09T21:11:20.715Z,100830.81
2023-01-09T21:13:47.085Z,100841.06
2023-01-09T21:16:13.494Z,100836.59
2023-01-09T21:18:39.888Z,100841.69
2023-01-09T21:21:06.262Z,100838.13
2023-01-09T21:23:32.634Z,100851.38
2023-01-09T21:25:59.002Z,100850.97
2023-01-09T21:28:25.391Z,100867.50
2023-01-09T21:30:51.742Z,100867.81
2023-01-09T21:33:18.131Z,100868.91
2023-01-09T21:35:44.608Z,100875.97
2023-01-09T21:38:10.958Z,100871.63
2023-01-09T21:40:37.314Z,100874.78
2023-01-09T21:43:03.694Z,100876.97
2023-01-09T21:45:30.140Z,100879.78
2023-01-09T21:47:56.516Z,100879.69
2023-01-09T21:50:22.889Z,100894.25
2023-01-09T21:52:49.281Z,100894.16
2023-01-09T21:55:15.629Z,100900.72
2023-01-09T21:57:42.002Z,100907.00
2023-01-09T22:00:08.474Z,100916.59
2023-01-09T22:02:34.849Z,100926.81
2023-01-09T22:05:01.227Z,100932.81
2023-01-09T22:07:27.590Z,100934.56
2023-01-09T22:09:53.951Z,100951.66
2023-01-09T22:12:20.346Z,100959.81
2023-01-09T22:14:46.763Z,100960.41
2023-01-09T22:17:13.168Z,100957.75
2023-01-09T22:19:39.558Z,100957.84
2023-01-09T22:22:05.937Z,100958.19
2023-01-09T22:24:32.332Z,100959.03
2023-01-09T22:26:58.695Z,100966.84
2023-01-09T22:29:25.076Z,100983.63
2023-01-09T22:31:51.570Z,100983.94
2023-01-09T22:34:18.105Z,100992.47
2023-01-09T22:36:44.568Z,100997.81
2023-01-09T22:39:11.038Z,101007.09
2023-01-09T22:41:37.400Z,101005.03
2023-01-09T22:44:03.775Z,101012.00
2023-01-09T22:46:30.174Z,101017.13
2023-01-09T22:48:56.531Z,101010.47
2023-01-09T22:51:22.907Z,101013.19
2023-01-09T22:53:49.278Z,101023.97
2023-01-09T22:56:15.630Z,101025.97
2023-01-09T22:58:41.974Z,101036.41
2023-01-09T23:01:08.366Z,101034.44
2023-01-09T23:03:34.755Z,101046.59
2023-01-09T23:06:01.111Z,101051.09
2023-01-09T23:08:27.601Z,101061.41
2023-01-09T23:10:53.956Z,101064.38
2023-01-09T23:13:20.302Z,101065.22
2023-01-09T23:15:46.689Z,101076.53
2023-01-09T23:18:13.061Z,101076.81
2023-01-09T23:20:39.427Z,101070.00
2023-01-09T23:23:05.800Z,101076.72
2023-01-09T23:25:32.172Z,101085.47
2023-01-09T23:27:58.557Z,101081.97
2023-01-09T23:30:24.935Z,101090.50
2023-01-09T23:32:51.310Z,101099.25
2023-01-09T23:35:17.692Z,101091.69
2023-01-09T23:37:44.054Z,101096.03
2023-01-09T23:40:10.461Z,101102.22
2023-01-09T23:42:36.824Z,101100.44
2023-01-09T23:45:03.318Z,101118.03
2023-01-09T23:47:29.883Z,101118.47
2023-01-09T23:49:56.243Z,101107.91
2023-01-09T23:52:22.617Z,101120.50
2023-01-09T23:54:49.013Z,101121.69
2023-01-09T23:57:15.361Z,101123.06
2023-01-09T23:59:41.745Z,101116.50
